Time;durP1;ratioP1;P1;durP2;ratioP2;P2;SDS_P1;SDS_P2;PMS_P1;PMS_P2;Temp;Humidity;BMP_temperature;BMP_pressure;BME280_temperature;BME280_humidity;BME280_pressure;Samples;Min_cycle;Max_cycle;Signal;HPM_P1;HPM_P2
2021/01/03 00:02:01;;;;;;;97.10;40.08;;;;;;;0.78;100.00;97248.94;4944150;29;20162;-84
2021/01/03 00:05:37;;;;;;;107.10;41.00;;;;;;;1.06;100.00;97280.44;4928186;29;20047;-83
2021/01/03 00:12:01;;;;;;;105.93;41.30;;;;;;;1.02;100.00;97260.72;4944776;28;20055;-84
2021/01/03 00:18:23;;;;;;;116.83;42.63;;;;;;;0.84;100.00;97216.72;4934635;29;20082;-84
2021/01/03 00:25:17;;;;;;;;;;;;;;;;;;;;;
2021/01/03 00:28:23;;;;;;;114.35;44.80;;;;;;;0.95;100.00;97260.19;5038985;28;20130;-84
2021/01/03 00:31:20;;;;;;;114.97;43.63;;;;;;;0.98;100.00;97263.09;4996951;28;20069;-84
2021/01/03 00:34:40;;;;;;;111.05;43.45;;;;;;;1.03;100.00;97263.13;4968275;28;20709;-83
2021/01/03 00:37:46;;;;;;;127.20;45.22;;;;;;;0.98;100.00;97259.66;4984239;28;20047;-84
2021/01/03 00:40:39;;;;;;;110.43;42.47;;;;;;;0.89;100.00;97227.41;4989359;28;20050;-83
2021/01/03 00:43:37;;;;;;;130.45;46.75;;;;;;;0.69;100.00;97231.88;5005117;28;20103;-83
2021/01/03 00:49:49;;;;;;;121.97;41.58;;;;;;;0.97;100.00;97248.19;5017756;28;20049;-83
2021/01/03 00:52:52;;;;;;;;;;;;;;;0.99;100.00;97251.41;4998250;28;20073;-83
2021/01/03 00:55:49;;;;;;;134.27;47.25;;;;;;;0.71;100.00;97237.72;4983371;28;19921;-84
2021/01/03 00:58:32;;;;;;;142.60;48.10;;;;;;;0.69;100.00;97231.88;5005759;28;20630;-83
2021/01/03 01:01:23;;;;;;;99.65;36.80;;;;;;;0.79;100.00;97227.38;5000792;28;20179;-83
2021/01/03 01:04:14;;;;;;;;;;;;;;;;;;;;;
2021/01/03 01:06:54;;;;;;;140.82;48.78;;;;;;;0.83;100.00;97199.13;5025037;28;20047;-84
2021/01/03 01:09:39;;;;;;;134.05;46.85;;;;;;;0.97;100.00;97224.22;5022254;28;20049;-83
2021/01/03 01:12:09;;;;;;;139.02;48.78;;;;;;;0.79;100.00;97205.25;5006830;28;20077;-83
2021/01/03 01:14:38;;;;;;;138.25;47.97;;;;;;;0.89;100.00;97223.94;4990862;28;20050;-84
2021/01/03 01:20:29;;;;;;;129.30;46.25;;;;;;;0.73;100.00;97200.97;5018546;28;20049;-83
2021/01/03 01:22:56;;;;;;;134.77;46.38;;;;;;;0.90;100.00;97220.22;5005145;28;20073;-85
2021/01/03 01:25:25;;;;;;;127.10;46.33;;;;;;;1.03;100.00;97225.81;5029464;28;20034;-85
2021/01/03 01:27:55;;;;;;;129.05;46.83;;;;;;;1.07;100.00;97224.22;5011272;28;20105;-84
2021/01/03 01:30:43;;;;;;;127.70;47.15;;;;;;;0.93;100.00;97209.03;5025755;28;20077;-84
2021/01/03 01:33:48;;;;;;;118.18;44.55;;;;;;;1.01;100.00;97205.81;5011407;28;20049;-82
2021/01/03 01:37:40;;;;;;;122.13;46.92;;;;;;;0.95;100.00;97198.91;4998852;28;20049;-85
2021/01/03 01:40:33;;;;;;;128.32;46.55;;;;;;;0.60;100.00;97176.44;5022303;28;20115;-83
2021/01/03 01:43:37;;;;;;;134.32;47.88;;;;;;;0.75;100.00;97199.63;5000901;28;20054;-85
2021/01/03 01:47:33;;;;;;;121.35;45.05;;;;;;;0.73;100.00;97190.31;5010351;28;20064;-83
2021/01/03 01:51:15;;;;;;;130.27;46.90;;;;;;;0.84;100.00;97198.06;5027750;28;20052;-83
2021/01/03 01:54:44;;;;;;;124.38;44.95;;;;;;;0.82;100.00;97194.88;4958711;29;20155;-82
2021/01/03 01:58:51;;;;;;;130.50;47.10;;;;;;;0.71;100.00;97171.94;4947528;29;20130;-83
2021/01/03 02:02:41;;;;;;;128.40;47.97;;;;;;;0.65;100.00;97166.88;4934604;29;20102;-83
2021/01/03 02:06:20;;;;;;;136.48;48.97;;;;;;;0.63;100.00;97157.28;4958633;29;20047;-82
2021/01/03 02:09:16;;;;;;;137.73;47.88;;;;;;;0.75;100.00;97175.66;4914391;29;20055;-84
2021/01/03 02:12:07;;;;;;;147.43;50.72;;;;;;;0.70;100.00;97178.31;4932180;28;20050;-84
2021/01/03 02:15:11;;;;;;;151.57;53.50;;;;;;;0.54;100.00;97160.72;4975074;28;20069;-84
2021/01/03 02:17:47;;;;;;;133.23;47.35;;;;;;;0.70;100.00;97177.53;4964174;28;20053;-84
2021/01/03 02:21:08;;;;;;;141.88;53.28;;;;;;;0.73;100.00;97177.00;4982006;28;20141;-83
2021/01/03 02:25:09;;;;;;;146.43;50.65;;;;;;;0.69;100.00;97181.25;4964203;28;20034;-84
2021/01/03 02:40:21;;;;;;;133.27;48.90;;;;;;;0.43;100.00;97159.09;5036492;28;20060;-78
2021/01/03 02:43:00;;;;;;;134.18;48.17;;;;;;;0.39;100.00;97145.47;5019997;28;20093;-78
2021/01/03 02:45:43;;;;;;;139.65;49.63;;;;;;;0.42;100.00;97152.16;5017111;28;20053;-78
2021/01/03 02:48:28;;;;;;;136.95;49.42;;;;;;;0.43;100.00;97161.75;4968017;28;20422;-78
2021/01/03 02:51:08;;;;;;;130.30;47.28;;;;;;;0.45;100.00;97163.09;4995703;28;20049;-79
2021/01/03 02:54:16;;;;;;;128.63;47.90;;;;;;;0.53;100.00;97159.91;5005732;28;20104;-78
2021/01/03 02:57:15;;;;;;;129.82;47.75;;;;;;;0.50;100.00;97148.97;5010018;28;20125;-78
2021/01/03 03:00:48;;;;;;;;;;;;;;;;;;;;;
2021/01/03 03:04:10;;;;;;;118.20;44.85;;;;;;;0.59;100.00;97152.75;5031996;28;20503;-78
2021/01/03 03:07:12;;;;;;;122.20;44.90;;;;;;;0.58;100.00;97154.59;5009616;28;20049;-78
2021/01/03 03:10:23;;;;;;;114.18;42.72;;;;;;;0.53;100.00;97133.28;5015765;28;20045;-78
2021/01/03 03:13:11;;;;;;;115.63;43.78;;;;;;;0.46;100.00;97132.75;5023109;28;20064;-78
2021/01/03 03:16:23;;;;;;;116.30;43.53;;;;;;;0.55;100.00;97141.00;4983566;28;20085;-78
2021/01/03 03:19:00;;;;;;;115.32;43.60;;;;;;;0.40;100.00;97111.69;5012714;28;20504;-77
2021/01/03 03:21:58;;;;;;;113.47;45.58;;;;;;;0.24;100.00;97107.38;4983212;28;20260;-78
2021/01/03 03:25:28;;;;;;;116.40;44.25;;;;;;;0.21;100.00;97095.38;5009361;28;20079;-78
2021/01/03 03:28:50;;;;;;;124.00;46.35;;;;;;;0.20;100.00;97106.31;5015103;28;20046;-78
2021/01/03 03:31:52;;;;;;;102.28;41.83;;;;;;;0.39;100.00;97102.09;4930507;28;20073;-77
2021/01/03 03:34:41;;;;;;;110.00;43.20;;;;;;;0.31;100.00;97091.97;4995111;28;20057;-78
2021/01/03 03:37:26;;;;;;;106.78;41.35;;;;;;;0.47;100.00;97117.53;5010593;28;20069;-78
2021/01/03 03:39:59;;;;;;;104.10;40.42;;;;;;;0.34;100.00;97105.53;5032556;28;20041;-77
2021/01/03 03:42:54;;;;;;;96.38;39.42;;;;;;;0.30;100.00;97095.69;4987121;28;20045;-78
2021/01/03 03:46:16;;;;;;;93.40;39.58;;;;;;;0.12;100.00;97070.38;5029650;28;20050;-78
2021/01/03 03:49:13;;;;;;;89.68;39.35;;;;;;;0.40;100.00;97099.19;5031676;28;20714;-78
2021/01/03 03:52:18;;;;;;;84.70;36.65;;;;;;;0.29;100.00;97084.25;5001424;28;20049;-78
2021/01/03 03:55:20;;;;;;;81.63;35.47;;;;;;;0.30;100.00;97077.06;5027869;28;20057;-78
2021/01/03 03:58:08;;;;;;;77.97;34.88;;;;;;;0.37;100.00;97085.59;5032677;28;20065;-77
2021/01/03 04:00:49;;;;;;;74.70;32.38;;;;;;;0.42;100.00;97088.25;5001020;28;20041;-77
2021/01/03 04:03:52;;;;;;;73.13;30.20;;;;;;;0.33;100.00;97077.34;5037244;28;20041;-78
2021/01/03 04:06:44;;;;;;;71.45;31.27;;;;;;;0.39;100.00;97078.94;5040299;28;20106;-78
2021/01/03 04:09:44;;;;;;;65.55;29.50;;;;;;;0.42;100.00;97077.59;5040453;28;20095;-78
2021/01/03 04:12:37;;;;;;;62.10;29.50;;;;;;;0.41;100.00;97084.00;5033502;28;20045;-77
2021/01/03 04:15:49;;;;;;;74.95;30.13;;;;;;;0.30;100.00;97075.19;5013478;28;20071;-75
2021/01/03 04:18:42;;;;;;;65.38;29.92;;;;;;;0.29;100.00;97076.25;5011333;28;20103;-77
2021/01/03 04:21:36;;;;;;;66.53;29.50;;;;;;;0.04;100.00;97062.88;5015838;28;20536;-78
2021/01/03 04:24:35;;;;;;;65.55;28.85;;;;;;;0.35;100.00;97088.53;5017284;28;20050;-78
2021/01/03 04:27:16;;;;;;;63.38;29.08;;;;;;;0.32;100.00;97077.59;5015703;28;20049;-79
2021/01/03 04:30:34;;;;;;;63.63;27.95;;;;;;;0.33;100.00;97074.69;4958492;28;20051;-77
2021/01/03 04:33:23;;;;;;;59.22;28.02;;;;;;;0.30;100.00;97071.72;4971944;28;20066;-78
2021/01/03 04:36:20;;;;;;;64.25;29.58;;;;;;;0.14;100.00;97054.94;4974448;28;20142;-78
2021/01/03 04:39:14;;;;;;;66.00;31.05;;;;;;;0.19;100.00;97083.41;4957863;28;20043;-78
2021/01/03 04:42:41;;;;;;;67.35;30.17;;;;;;;0.05;100.00;97045.88;4964153;28;20588;-78
2021/01/03 04:50:21;;;;;;;64.70;30.25;;;;;;;0.29;100.00;97086.09;4932101;29;20444;-78
2021/01/03 04:53:33;;;;;;;72.63;31.05;;;;;;;0.38;100.00;97092.53;4956320;28;20377;-78
2021/01/03 04:56:50;;;;;;;70.32;31.02;;;;;;;0.35;100.00;97085.06;4940074;28;20518;-78
2021/01/03 04:59:57;;;;;;;76.50;31.90;;;;;;;0.07;100.00;97062.38;4959320;28;20605;-78
2021/01/03 05:02:55;;;;;;;74.97;33.17;;;;;;;0.37;100.00;97082.91;4955778;28;20194;-79
2021/01/03 05:06:36;;;;;;;76.78;34.17;;;;;;;0.26;100.00;97083.97;4933697;29;20227;-78
2021/01/03 05:10:16;;;;;;;81.20;34.65;;;;;;;0.22;100.00;97057.09;4961254;28;20047;-77
2021/01/03 05:13:19;;;;;;;80.82;35.22;;;;;;;0.27;100.00;97089.03;4882988;29;20108;-78
2021/01/03 05:16:37;;;;;;;80.63;35.33;;;;;;;0.03;100.00;97065.81;4963244;28;20039;-78
2021/01/03 05:19:39;;;;;;;80.68;34.67;;;;;;;0.09;100.00;97060.25;4971635;28;20047;-78
2021/01/03 05:23:18;;;;;;;80.50;34.38;;;;;;;0.11;100.00;97051.97;5012146;28;20461;-79
2021/01/03 05:25:55;;;;;;;;;;;;;;;0.29;100.00;97089.56;5035593;28;20046;-78
2021/01/03 05:29:08;;;;;;;78.22;33.78;;;;;;;0.12;100.00;97050.94;5018779;28;20355;-78
2021/01/03 05:32:06;;;;;;;85.60;34.95;;;;;;;0.21;100.00;97054.66;5054027;28;20045;-78
2021/01/03 05:35:22;;;;;;;77.78;35.22;;;;;;;0.18;100.00;97052.56;5010302;28;20049;-78
2021/01/03 05:38:12;;;;;;;80.45;35.10;;;;;;;0.25;100.00;97064.53;5015431;28;20047;-79
2021/01/03 05:41:20;;;;;;;86.25;35.72;;;;;;;0.25;100.00;97061.06;5011835;28;20055;-79
2021/01/03 05:44:40;;;;;;;;;;;;;;;;;;;;;
2021/01/03 05:48:09;;;;;;;87.03;35.80;;;;;;;0.20;100.00;97066.38;5051137;28;20188;-79
2021/01/03 05:51:08;;;;;;;82.20;35.08;;;;;;;0.11;100.00;97051.97;5035176;28;20045;-79
2021/01/03 05:53:50;;;;;;;89.03;36.00;;;;;;;0.29;100.00;97064.78;5013460;28;20066;-79
2021/01/03 05:56:36;;;;;;;;;;;;;;;0.33;100.00;97090.66;5003850;28;20053;-78
2021/01/03 05:59:50;;;;;;;85.35;35.65;;;;;;;0.10;100.00;97066.38;5013730;28;20006;-79
2021/01/03 06:02:30;;;;;;;89.13;36.17;;;;;;;0.31;100.00;97084.00;5020944;28;20049;-78
2021/01/03 06:05:29;;;;;;;94.10;38.40;;;;;;;-0.05;100.00;97049.28;5051156;28;20049;-79
2021/01/03 06:08:26;;;;;;;89.00;36.38;;;;;;;0.03;100.00;97050.63;4948829;28;20045;-78
2021/01/03 06:11:20;;;;;;;92.35;38.28;;;;;;;0.04;100.00;97065.53;5017360;28;20049;-80
2021/01/03 06:13:55;;;;;;;94.57;38.63;;;;;;;0.17;100.00;97093.53;5019057;28;20578;-80
2021/01/03 06:17:13;;;;;;;95.55;37.53;;;;;;;0.07;100.00;97072.19;4999797;28;20049;-79
2021/01/03 06:20:24;;;;;;;89.65;36.42;;;;;;;0.08;100.00;97063.19;5021651;28;20061;-79
2021/01/03 06:23:35;;;;;;;91.13;36.92;;;;;;;0.16;100.00;97071.44;5014467;28;20101;-80
2021/01/03 06:26:25;;;;;;;90.57;37.25;;;;;;;0.07;100.00;97058.91;5027581;28;20046;-79
2021/01/03 06:29:11;;;;;;;93.45;37.97;;;;;;;0.08;100.00;97071.16;5022277;28;20133;-79
2021/01/03 06:32:33;;;;;;;93.88;39.10;;;;;;;0.17;100.00;97082.88;5018320;28;20042;-79
2021/01/03 06:35:26;;;;;;;91.68;37.15;;;;;;;0.07;100.00;97085.50;4997177;28;20175;-78
2021/01/03 06:38:39;;;;;;;106.00;40.63;;;;;;;0.11;100.00;97100.69;5024051;28;20302;-79
2021/01/03 06:41:51;;;;;;;100.90;40.25;;;;;;;0.07;100.00;97057.03;5035403;28;20049;-78
2021/01/03 06:44:43;;;;;;;97.30;37.77;;;;;;;0.26;100.00;97092.75;4996134;28;20057;-79
2021/01/03 06:48:01;;;;;;;92.60;37.00;;;;;;;0.32;100.00;97085.56;5016508;28;20057;-78
2021/01/03 06:51:09;;;;;;;88.20;36.22;;;;;;;0.32;100.00;97093.56;5029675;28;20103;-78
2021/01/03 06:54:19;;;;;;;93.75;37.33;;;;;;;0.32;100.00;97088.22;5031212;28;20244;-79
2021/01/03 06:58:00;;;;;;;;;;;;;;;;;;;;;
2021/01/03 07:00:56;;;;;;;88.05;34.10;;;;;;;0.19;100.00;97059.47;5032209;28;20045;-79
2021/01/03 07:03:47;;;;;;;85.43;34.78;;;;;;;0.27;100.00;97064.28;5030637;28;20041;-80
2021/01/03 07:06:58;;;;;;;89.50;36.65;;;;;;;0.12;100.00;97086.34;4996646;28;20076;-79
2021/01/03 07:10:27;;;;;;;91.82;35.70;;;;;;;0.19;100.00;97078.91;5033408;28;20037;-78
2021/01/03 07:14:01;;;;;;;83.35;34.58;;;;;;;0.22;100.00;97062.41;5031329;28;20072;-79
2021/01/03 07:17:08;;;;;;;84.30;33.97;;;;;;;0.46;100.00;97086.69;5012768;28;20045;-79
2021/01/03 07:20:21;;;;;;;87.75;34.22;;;;;;;0.56;100.00;97097.34;5015338;28;20048;-78
2021/01/03 07:23:30;;;;;;;;;;;;;;;;;;;;;
2021/01/03 07:26:19;;;;;;;81.07;33.75;;;;;;;0.58;100.00;97105.88;5022409;23;20592;-78
2021/01/03 07:28:50;;;;;;;78.47;33.05;;;;;;;0.65;100.00;97093.09;4982934;28;20062;-77
2021/01/03 07:31:32;;;;;;;82.32;32.60;;;;;;;0.65;100.00;97097.63;4975289;28;20663;-77
2021/01/03 07:34:11;;;;;;;76.72;32.03;;;;;;;0.70;100.00;97082.44;4969586;28;20463;-76
2021/01/03 07:36:42;;;;;;;77.22;31.85;;;;;;;0.73;100.00;97094.41;4948845;29;20078;-76
2021/01/03 07:39:15;;;;;;;75.85;32.22;;;;;;;0.78;100.00;97108.56;4950277;28;20043;-76
2021/01/03 07:41:42;;;;;;;79.22;31.38;;;;;;;0.81;100.00;97096.56;4967134;28;20057;-77
2021/01/03 07:44:30;;;;;;;76.38;31.58;;;;;;;0.82;100.00;97090.19;4969912;28;20101;-76
2021/01/03 07:47:02;;;;;;;77.00;30.27;;;;;;;0.83;100.00;97100.56;4968343;28;20063;-76
2021/01/03 07:49:41;;;;;;;72.25;29.88;;;;;;;0.85;100.00;97092.31;4952780;28;20100;-76
2021/01/03 07:52:16;;;;;;;75.13;30.60;;;;;;;0.81;100.00;97091.22;4954990;28;20055;-76
2021/01/03 07:54:48;;;;;;;72.38;30.55;;;;;;;0.77;100.00;97090.19;4970345;28;20049;-76
2021/01/03 07:57:15;;;;;;;80.68;30.67;;;;;;;0.77;100.00;97100.84;4981088;28;20062;-78
2021/01/03 07:59:41;;;;;;;81.05;32.22;;;;;;;0.70;100.00;97085.09;4978499;28;20586;-80
2021/01/03 08:02:08;;;;;;;81.55;32.92;;;;;;;0.74;100.00;97088.84;4973532;28;20555;-78
2021/01/03 08:04:34;;;;;;;88.70;33.67;;;;;;;0.79;100.00;97085.38;4961825;28;20069;-77
2021/01/03 08:07:07;;;;;;;93.28;34.28;;;;;;;0.84;100.00;97088.03;4990172;28;20609;-77
2021/01/03 08:09:35;;;;;;;96.10;34.10;;;;;;;0.86;100.00;97084.06;4996375;28;20046;-78
2021/01/03 08:12:14;;;;;;;84.70;32.92;;;;;;;0.82;100.00;97085.66;4945461;28;20134;-78
2021/01/03 08:14:45;;;;;;;89.80;34.40;;;;;;;0.81;100.00;97083.25;4977975;28;20054;-78
2021/01/03 08:17:25;;;;;;;107.03;35.13;;;;;;;0.78;100.00;97084.56;4971690;28;20050;-77
2021/01/03 08:19:52;;;;;;;98.90;35.05;;;;;;;0.80;100.00;97093.09;4974233;28;20038;-79
2021/01/03 08:22:25;;;;;;;103.40;33.88;;;;;;;0.76;100.00;97094.69;4960613;28;20049;-78
2021/01/03 08:24:56;;;;;;;121.38;36.10;;;;;;;0.66;100.00;97110.66;4969243;28;20078;-78
2021/01/03 08:27:54;;;;;;;116.45;32.53;;;;;;;0.72;100.00;97096.31;4959420;29;20049;-77
2021/01/03 08:30:24;;;;;;;93.75;31.15;;;;;;;0.78;100.00;97105.06;4962769;28;20067;-78
2021/01/03 08:32:52;;;;;;;79.63;29.52;;;;;;;1.06;100.00;97101.88;4959682;29;20070;-79
2021/01/03 08:35:30;;;;;;;80.45;31.20;;;;;;;1.15;100.00;97100.31;4959782;28;20051;-78
2021/01/03 08:37:57;;;;;;;79.70;29.88;;;;;;;1.14;100.00;97110.16;4953902;28;20409;-77
2021/01/03 08:40:43;;;;;;;94.93;30.48;;;;;;;0.95;100.00;97106.44;4979365;28;20077;-78
2021/01/03 08:43:16;;;;;;;82.82;30.90;;;;;;;0.88;100.00;97108.56;4983061;28;20046;-79
2021/01/03 08:45:44;;;;;;;84.40;29.05;;;;;;;0.85;100.00;97105.63;4979003;28;20043;-78
2021/01/03 08:48:20;;;;;;;73.43;29.00;;;;;;;0.83;100.00;97113.88;4976938;28;20150;-79
2021/01/03 08:50:46;;;;;;;77.85;29.00;;;;;;;0.84;100.00;97115.50;4977235;28;20042;-78
2021/01/03 08:53:22;;;;;;;70.43;28.30;;;;;;;0.79;100.00;97120.81;4976340;28;20132;-80
2021/01/03 08:55:50;;;;;;;76.10;28.98;;;;;;;0.74;100.00;97118.16;4975567;28;20061;-80
2021/01/03 08:58:19;;;;;;;72.30;28.77;;;;;;;0.68;100.00;97124.53;4975007;28;20039;-78
2021/01/03 09:01:00;;;;;;;68.82;28.42;;;;;;;0.81;100.00;97129.34;4976771;28;20298;-78
2021/01/03 09:03:31;;;;;;;65.15;26.77;;;;;;;0.90;100.00;97116.28;4975992;28;20077;-77
2021/01/03 09:05:59;;;;;;;69.13;27.50;;;;;;;0.99;100.00;97120.03;4976254;28;20759;-77
2021/01/03 09:08:34;;;;;;;64.25;26.45;;;;;;;1.02;100.00;97132.81;4977762;28;20055;-78
2021/01/03 09:11:07;;;;;;;61.05;24.65;;;;;;;1.13;100.00;97123.75;4964778;28;20047;-78
2021/01/03 09:13:43;;;;;;;52.78;23.23;;;;;;;1.21;100.00;97118.69;4956365;29;20054;-79
2021/01/03 09:16:22;;;;;;;38.88;17.15;;;;;;;1.24;100.00;97126.16;4967464;28;20047;-80
2021/01/03 09:19:03;;;;;;;49.03;21.63;;;;;;;1.17;100.00;97117.63;4942632;29;20102;-77
2021/01/03 09:21:29;;;;;;;50.33;22.33;;;;;;;1.19;100.00;97115.47;4959529;28;20049;-80
2021/01/03 09:24:03;;;;;;;49.63;21.25;;;;;;;1.22;100.00;97130.94;4959906;28;20039;-80
2021/01/03 09:26:41;;;;;;;48.28;20.90;;;;;;;1.29;100.00;97122.69;4963704;29;20145;-79
2021/01/03 09:29:14;;;;;;;42.20;20.80;;;;;;;1.23;100.00;97127.22;4985178;28;20042;-79
2021/01/03 09:32:01;;;;;;;45.30;21.10;;;;;;;1.21;100.00;97133.91;4958816;28;20502;-79
2021/01/03 09:34:55;;;;;;;41.75;19.88;;;;;;;1.23;100.00;97145.09;4963379;28;20065;-76
2021/01/03 09:37:31;;;;;;;45.33;19.77;;;;;;;1.25;100.00;97149.09;4956190;29;20099;-78
2021/01/03 09:40:17;;;;;;;44.80;20.60;;;;;;;1.22;100.00;97141.63;4955392;29;20106;-79
2021/01/03 09:42:53;;;;;;;40.65;18.85;;;;;;;1.27;100.00;97143.47;4962714;28;20050;-78
2021/01/03 09:45:40;;;;;;;42.33;18.48;;;;;;;1.33;100.00;97139.75;4956124;28;20043;-77
2021/01/03 09:48:07;;;;;;;38.20;17.83;;;;;;;1.37;100.00;97140.78;4954992;28;20177;-80
2021/01/03 09:50:40;;;;;;;40.13;18.33;;;;;;;1.35;100.00;97145.59;4975140;28;20049;-79
2021/01/03 09:53:36;;;;;;;36.95;17.67;;;;;;;1.42;100.00;97137.34;4969721;28;20082;-78
2021/01/03 09:56:06;;;;;;;35.70;15.60;;;;;;;1.41;100.00;97141.88;4956545;28;20062;-78
2021/01/03 09:58:41;;;;;;;36.40;16.58;;;;;;;1.40;100.00;97134.94;4958188;28;20047;-80
2021/01/03 10:01:23;;;;;;;33.13;15.60;;;;;;;1.41;100.00;97141.06;4972967;28;20410;-78
2021/01/03 10:03:49;;;;;;;31.60;13.93;;;;;;;1.34;100.00;97143.22;4978083;28;20042;-78
2021/01/03 10:06:33;;;;;;;29.23;13.65;;;;;;;1.27;100.00;97133.59;4967620;28;20315;-79
2021/01/03 10:09:27;;;;;;;28.50;13.73;;;;;;;1.40;100.00;97134.94;4940902;29;20122;-79
2021/01/03 10:11:56;;;;;;;28.10;13.00;;;;;;;1.35;100.00;97132.28;4960451;28;20042;-79
2021/01/03 10:14:33;;;;;;;31.17;13.88;;;;;;;1.51;100.00;97138.38;4976604;28;20443;-77
2021/01/03 10:17:21;;;;;;;34.00;15.32;;;;;;;1.52;100.00;97129.34;4982872;28;20058;-79
2021/01/03 10:19:48;;;;;;;30.88;14.30;;;;;;;1.56;100.00;97130.38;4960185;28;20502;-79
2021/01/03 10:22:29;;;;;;;31.80;14.55;;;;;;;1.54;100.00;97124.53;4986473;28;20060;-78
2021/01/03 10:25:01;;;;;;;30.77;14.23;;;;;;;1.57;100.00;97135.47;4988757;28;20050;-77
2021/01/03 10:27:28;;;;;;;29.90;13.02;;;;;;;1.48;100.00;97128.25;4978733;28;20046;-78
2021/01/03 10:29:56;;;;;;;28.25;13.45;;;;;;;1.41;100.00;97119.75;4965209;28;20062;-77
2021/01/03 10:32:23;;;;;;;24.27;13.43;;;;;;;1.48;100.00;97130.91;4981657;28;20039;-77
2021/01/03 10:34:50;;;;;;;28.92;13.18;;;;;;;1.45;100.00;97128.78;4964702;28;20049;-79
2021/01/03 10:37:17;;;;;;;26.70;13.70;;;;;;;1.33;100.00;97113.09;4971890;28;20050;-78
2021/01/03 10:39:45;;;;;;;25.15;13.07;;;;;;;1.41;100.00;97122.41;5000642;28;20033;-79
2021/01/03 10:42:12;;;;;;;27.92;13.20;;;;;;;1.39;100.00;97124.53;4998728;28;20064;-78
2021/01/03 10:44:39;;;;;;;27.63;13.63;;;;;;;1.43;100.00;97120.25;4992460;28;20042;-79
2021/01/03 10:47:05;;;;;;;27.63;13.95;;;;;;;1.32;100.00;97124.81;4993207;28;20076;-78
2021/01/03 10:49:32;;;;;;;27.02;13.68;;;;;;;1.27;100.00;97117.63;4994158;28;20122;-79
2021/01/03 10:51:58;;;;;;;27.00;13.25;;;;;;;1.25;100.00;97121.63;4978126;28;20045;-78
2021/01/03 10:54:28;;;;;;;26.85;13.88;;;;;;;1.30;100.00;97126.94;4971554;28;20051;-79
2021/01/03 10:57:06;;;;;;;27.00;13.77;;;;;;;1.33;100.00;97130.94;4947302;28;20140;-78
2021/01/03 10:59:33;;;;;;;28.55;14.40;;;;;;;1.35;100.00;97134.13;4974043;28;20041;-78
2021/01/03 11:02:00;;;;;;;32.60;15.23;;;;;;;1.25;100.00;97127.75;4994786;28;20096;-77
2021/01/03 11:04:26;;;;;;;32.70;15.95;;;;;;;1.27;100.00;97136.28;4990614;28;20054;-76
2021/01/03 11:06:55;;;;;;;31.80;14.63;;;;;;;1.19;100.00;97126.16;4984352;28;20074;-78
2021/01/03 11:09:27;;;;;;;30.33;14.63;;;;;;;1.37;100.00;97134.69;4980830;28;20048;-77
2021/01/03 11:12:06;;;;;;;31.98;15.85;;;;;;;1.45;100.00;97121.59;4980386;28;20048;-77
2021/01/03 11:14:33;;;;;;;29.67;15.57;;;;;;;1.42;100.00;97122.13;4975036;28;20150;-78
2021/01/03 11:16:59;;;;;;;33.70;15.43;;;;;;;1.47;100.00;97126.66;4970454;28;20133;-78
2021/01/03 11:19:26;;;;;;;34.90;17.17;;;;;;;1.59;100.00;97124.50;4989262;28;20058;-78
2021/01/03 11:22:05;;;;;;;32.28;15.50;;;;;;;2.06;100.00;97118.78;4978758;28;20046;-78
2021/01/03 11:24:31;;;;;;;31.17;16.35;;;;;;;2.11;100.00;97118.75;4992968;28;20045;-78
2021/01/03 11:27:01;;;;;;;33.70;17.05;;;;;;;2.17;100.00;97128.34;4986979;28;20069;-77
2021/01/03 11:29:45;;;;;;;28.85;15.40;;;;;;;2.25;100.00;97119.75;4986795;28;20117;-78
2021/01/03 11:32:22;;;;;;;32.13;15.85;;;;;;;2.31;100.00;97121.34;4976751;28;20332;-77
2021/01/03 11:34:48;;;;;;;31.58;15.18;;;;;;;2.36;100.00;97121.31;4989716;28;20062;-78
2021/01/03 11:37:19;;;;;;;37.28;15.98;;;;;;;2.28;100.00;97103.97;4979925;28;20077;-78
2021/01/03 11:39:46;;;;;;;34.33;16.38;;;;;;;2.36;100.00;97116.78;4981566;28;20055;-78
2021/01/03 11:42:17;;;;;;;26.73;14.70;;;;;;;2.39;100.00;97123.44;4949023;28;20773;-78
2021/01/03 11:44:44;;;;;;;31.45;15.13;;;;;;;2.30;100.00;97120.53;4985217;28;20057;-79
2021/01/03 11:47:14;;;;;;;31.85;15.52;;;;;;;2.10;100.00;97119.81;4982052;28;20050;-79
2021/01/03 11:49:44;;;;;;;32.08;15.93;;;;;;;2.01;100.00;97126.81;4985383;28;20332;-78
2021/01/03 11:52:26;;;;;;;29.58;14.75;;;;;;;2.18;100.00;97119.25;4982442;28;20109;-76
2021/01/03 11:54:52;;;;;;;27.95;14.18;;;;;;;2.07;100.00;97123.03;4973899;28;20047;-79
2021/01/03 11:57:19;;;;;;;28.65;13.77;;;;;;;2.11;100.00;97122.22;4964279;28;20046;-77
2021/01/03 11:59:46;;;;;;;27.42;13.82;;;;;;;2.08;100.00;97120.09;4970309;28;20143;-78
2021/01/03 12:02:12;;;;;;;33.38;14.43;;;;;;;1.57;100.00;97106.13;4978478;28;20102;-77
2021/01/03 12:04:39;;;;;;;33.05;15.07;;;;;;;1.62;100.00;97118.63;4969444;28;20047;-79
2021/01/03 12:07:12;;;;;;;31.00;14.88;;;;;;;1.50;100.00;97118.91;4972613;28;20502;-79
2021/01/03 12:09:39;;;;;;;33.38;15.30;;;;;;;1.22;100.00;97119.47;4971015;28;20043;-77
2021/01/03 12:12:08;;;;;;;38.28;16.92;;;;;;;1.04;100.00;97131.47;4972554;28;20062;-77
2021/01/03 12:14:35;;;;;;;46.03;16.65;;;;;;;0.84;100.00;97125.34;4961597;28;20051;-77
2021/01/03 12:17:07;;;;;;;46.05;19.30;;;;;;;0.83;100.00;97132.53;4951726;28;20118;-79
2021/01/03 12:19:34;;;;;;;40.33;18.63;;;;;;;0.86;100.00;97147.97;4956898;28;20042;-78
2021/01/03 12:22:04;;;;;;;44.75;21.02;;;;;;;1.08;100.00;97137.91;4971383;28;20047;-78
2021/01/03 12:24:31;;;;;;;42.45;18.92;;;;;;;1.19;100.00;97138.66;4967081;28;20039;-77
2021/01/03 12:26:58;;;;;;;36.67;18.38;;;;;;;1.17;100.00;97130.94;4956258;28;20503;-77
2021/01/03 12:29:25;;;;;;;41.63;17.75;;;;;;;1.25;100.00;97141.09;4933972;29;20043;-77
2021/01/03 12:31:55;;;;;;;37.50;17.48;;;;;;;1.13;100.00;97137.09;4950709;28;20118;-77
2021/01/03 12:34:24;;;;;;;42.10;18.60;;;;;;;1.22;100.00;97135.47;4953781;28;20047;-77
2021/01/03 12:36:53;;;;;;;40.92;18.88;;;;;;;0.98;100.00;97135.19;4966103;28;20403;-77
2021/01/03 12:39:20;;;;;;;46.05;20.02;;;;;;;0.93;100.00;97129.09;4968909;28;20039;-78
2021/01/03 12:41:46;;;;;;;41.83;19.25;;;;;;;1.19;100.00;97136.00;4974991;28;20054;-77
2021/01/03 12:44:13;;;;;;;44.60;19.30;;;;;;;1.35;100.00;97134.94;4974001;28;20070;-77
2021/01/03 12:46:44;;;;;;;41.35;18.90;;;;;;;1.54;100.00;97129.84;4965836;28;20528;-77
2021/01/03 12:49:12;;;;;;;37.97;17.17;;;;;;;1.70;100.00;97142.88;4962971;28;20560;-78
2021/01/03 12:51:38;;;;;;;44.38;17.08;;;;;;;1.54;100.00;97129.84;4982305;28;20063;-77
2021/01/03 12:54:06;;;;;;;40.00;18.85;;;;;;;1.57;100.00;97137.31;4969259;28;20051;-79
2021/01/03 12:56:33;;;;;;;41.50;18.90;;;;;;;1.74;100.00;97141.28;4987194;28;20049;-79
2021/01/03 12:59:03;;;;;;;40.30;18.02;;;;;;;1.80;100.00;97140.22;4985353;28;20085;-77
2021/01/03 13:01:33;;;;;;;37.25;17.63;;;;;;;1.78;100.00;97149.56;4985616;28;20486;-78
2021/01/03 13:04:03;;;;;;;38.60;17.38;;;;;;;1.82;100.00;97139.94;4981954;28;20101;-77
2021/01/03 13:06:29;;;;;;;38.15;17.48;;;;;;;1.87;100.00;97132.72;4978222;28;20245;-79
2021/01/03 13:08:56;;;;;;;36.78;16.88;;;;;;;1.98;100.00;97135.34;4996293;28;20047;-78
2021/01/03 13:11:22;;;;;;;38.40;17.98;;;;;;;1.96;100.00;97146.31;4976163;28;20510;-78
2021/01/03 13:13:49;;;;;;;40.17;18.15;;;;;;;2.03;100.00;97146.00;4962869;28;20050;-77
2021/01/03 13:16:17;;;;;;;40.10;18.83;;;;;;;1.68;100.00;97147.69;4955839;28;20069;-78
2021/01/03 13:18:44;;;;;;;39.10;17.83;;;;;;;1.78;100.00;97146.88;4955700;28;20043;-78
2021/01/03 13:21:10;;;;;;;40.15;19.17;;;;;;;1.85;100.00;97156.22;4971411;28;20061;-78
2021/01/03 13:23:37;;;;;;;35.97;17.92;;;;;;;2.04;100.00;97150.28;4984358;28;20026;-77
2021/01/03 13:26:04;;;;;;;38.95;17.35;;;;;;;2.12;100.00;97155.84;4987850;28;20109;-78
2021/01/03 13:28:33;;;;;;;42.60;17.00;;;;;;;1.86;100.00;97122.28;5017042;23;20045;-84
2021/01/03 13:31:00;;;;;;;39.15;16.83;;;;;;;1.98;100.00;97122.81;5018110;28;20096;-84